Emily, Minnesota
Current Conditions -  °F | °C
As of 8:14 PM on Saturday 25 Oct 2014 (Local Time) from KAIT Reporting Station
Clear Clear  
Wind Chill: 48°   Ceiling: Unl
Heat Index: 48°   Visibility: 10mi
Dew Point: 21°   Wind: 0mph
Humidity: 34%   Direction: NA
Pressure: 30.01"   Gusts: NA
Location:  46.73°N, 93.96°W
Report Text: KAIT 260114Z AUTO 00000KT 10SM CLR 09/M06 A3001 RMK AO2
Loading
Personal Weather Stations






























Interactive Weather Map
Tropical Storm Tracking
New forecast layout! Learn more

10-Day Weather Forecast

Advertisements
Track Severe Weather on mobile